YSSY/SYD METAR and TAF weather

Enter ICAO airport designator
Station Type Date Time Source
YSSY METAR 2020/03/29 11:00 UTC NOAA

YSSY 291100Z 01009KT CAVOK 22/19 Q1017 NOSIG


Station Type Date Time Source
YSSY Decoded METAR 2020/03/29 11:00 UTC NOAA

Sydney Airport, Australia (YSSY) 33-57S 151-11E 3M
Mar 29, 2020 - 07:00 AM EDT / 2020.03.29 1100 UTC
Wind: from the N (010 degrees) at 10 MPH (9 KT):0
Visibility: greater than 7 mile(s):0
Temperature: 71 F (22 C)
Dew Point: 66 F (19 C)
Relative Humidity: 83%
Pressure (altimeter): 30.03 in. Hg (1017 hPa)
ob: YSSY 291100Z 01009KT CAVOK 22/19 Q1017 NOSIG
cycle: 11

Station Type Date Time Source
YSSY TAF 2020/03/29 06:45 UTC NOAA

TAF YSSY 290503Z 2906/3012 03018KT 9999 FEW030
FM290900 36013KT CAVOK
FM291400 29008KT CAVOK
FM292000 29008KT 9999 -RA BKN080
FM300200 32015KT CAVOK
FM300900 29008KT CAVOK

Example: see airport list